Time;durP1;ratioP1;P1;durP2;ratioP2;P2;SDS_P1;SDS_P2;PMS_P1;PMS_P2;Temp;Humidity;BMP_temperature;BMP_pressure;BME280_temperature;BME280_humidity;BME280_pressure;Samples;Min_cycle;Max_cycle;Signal;HPM_P1;HPM_P2
2022/12/06 00:01:48;;;;;;;14.85;8.27;;;;;;;;;;5037369;28;20044;-83
2022/12/06 00:04:15;;;;;;;17.23;9.18;;;;;;;;;;5037241;28;20017;-83
2022/12/06 00:06:43;;;;;;;13.38;7.88;;;;;;;;;;5037327;28;20099;-83
2022/12/06 00:09:13;;;;;;;15.32;7.97;;;;;;;;;;5037172;28;20057;-83
2022/12/06 00:11:39;;;;;;;13.20;7.40;;;;;;;;;;5036282;28;20036;-83
2022/12/06 00:14:06;;;;;;;12.55;7.10;;;;;;;;;;5037320;28;20025;-83
2022/12/06 00:16:36;;;;;;;13.23;8.15;;;;;;;;;;5036153;28;20057;-83
2022/12/06 00:19:03;;;;;;;14.10;7.88;;;;;;;;;;5035783;28;20034;-83
2022/12/06 00:21:30;;;;;;;12.88;6.82;;;;;;;;;;5037502;28;20116;-83
2022/12/06 00:23:58;;;;;;;12.93;7.25;;;;;;;;;;5037182;28;20034;-83
2022/12/06 00:26:24;;;;;;;11.90;7.05;;;;;;;;;;5036961;28;20023;-83
2022/12/06 00:28:54;;;;;;;13.93;7.43;;;;;;;;;;5036965;28;20035;-83
2022/12/06 00:31:21;;;;;;;13.30;6.78;;;;;;;;;;5035991;28;20033;-83
2022/12/06 00:33:47;;;;;;;14.25;7.32;;;;;;;;;;5035925;28;20022;-83
2022/12/06 00:36:18;;;;;;;14.13;7.22;;;;;;;;;;5037009;28;20060;-84
2022/12/06 00:38:44;;;;;;;13.70;7.53;;;;;;;;;;5038197;28;20323;-83
2022/12/06 00:41:15;;;;;;;14.20;7.38;;;;;;;;;;5040512;28;20412;-83
2022/12/06 00:43:47;;;;;;;11.57;7.28;;;;;;;;;;5040989;28;20026;-82
2022/12/06 00:46:16;;;;;;;16.35;8.18;;;;;;;;;;5040662;28;20096;-83
2022/12/06 00:48:42;;;;;;;14.40;7.47;;;;;;;;;;5040347;28;20071;-83
2022/12/06 00:51:08;;;;;;;11.65;7.03;;;;;;;;;;5040486;28;20030;-83
2022/12/06 00:53:34;;;;;;;14.32;7.00;;;;;;;;;;5040587;28;20075;-83
2022/12/06 00:56:00;;;;;;;14.38;7.40;;;;;;;;;;5040395;28;20414;-83
2022/12/06 00:58:26;;;;;;;12.20;6.57;;;;;;;;;;5040318;28;20030;-83
2022/12/06 01:00:52;;;;;;;13.32;7.22;;;;;;;;;;5039195;28;20017;-83
2022/12/06 01:03:18;;;;;;;13.38;6.65;;;;;;;;;;5040285;28;20025;-83
2022/12/06 01:05:48;;;;;;;12.90;7.50;;;;;;;;;;5040183;28;20449;-83
2022/12/06 01:08:15;;;;;;;13.45;6.97;;;;;;;;;;5040665;28;20455;-83
2022/12/06 01:10:41;;;;;;;12.85;7.10;;;;;;;;;;5040330;28;20116;-83
2022/12/06 01:13:08;;;;;;;13.45;7.38;;;;;;;;;;5039139;28;20048;-83
2022/12/06 01:18:38;;;;;;;16.30;8.40;;;;;;;;;;5040117;28;20083;-83
2022/12/06 01:21:14;;;;;;;15.02;7.97;;;;;;;;;;5039941;28;20408;-83
2022/12/06 01:23:40;;;;;;;14.98;8.40;;;;;;;;;;5040036;28;20022;-83
2022/12/06 01:26:07;;;;;;;13.48;7.90;;;;;;;;;;5039052;28;20029;-83
2022/12/06 01:28:35;;;;;;;14.70;8.18;;;;;;;;;;5039986;28;20045;-83
2022/12/06 01:31:06;;;;;;;13.80;7.85;;;;;;;;;;5038761;28;20070;-83
2022/12/06 01:33:32;;;;;;;14.43;7.88;;;;;;;;;;5038737;28;20076;-83
2022/12/06 01:35:58;;;;;;;12.45;7.93;;;;;;;;;;5038539;28;20040;-84
2022/12/06 01:38:24;;;;;;;13.30;7.20;;;;;;;;;;5039824;28;20323;-83
2022/12/06 01:40:51;;;;;;;13.73;6.72;;;;;;;;;;5039571;28;20437;-84
2022/12/06 01:43:29;;;;;;;12.48;6.93;;;;;;;;;;5038397;28;20443;-84
2022/12/06 01:45:56;;;;;;;11.70;6.32;;;;;;;;;;5039625;28;20028;-83
2022/12/06 01:48:24;;;;;;;12.73;7.13;;;;;;;;;;5039058;28;20029;-83
2022/12/06 01:50:50;;;;;;;11.23;6.10;;;;;;;;;;5039645;28;20064;-84
2022/12/06 01:53:18;;;;;;;11.02;6.60;;;;;;;;;;5039808;28;20049;-83
2022/12/06 01:55:45;;;;;;;10.55;6.30;;;;;;;;;;5039438;28;20176;-83
2022/12/06 01:58:16;;;;;;;10.88;6.60;;;;;;;;;;5038153;28;20025;-82
2022/12/06 02:00:42;;;;;;;12.02;6.68;;;;;;;;;;5037917;28;20351;-82
2022/12/06 02:03:10;;;;;;;13.27;6.78;;;;;;;;;;5039412;28;20075;-83
2022/12/06 02:05:37;;;;;;;12.77;6.72;;;;;;;;;;5038941;28;20022;-82
2022/12/06 02:08:04;;;;;;;10.23;6.00;;;;;;;;;;5039335;28;20028;-83
2022/12/06 02:10:30;;;;;;;11.40;6.50;;;;;;;;;;5039204;28;20113;-80
2022/12/06 02:12:57;;;;;;;12.65;6.85;;;;;;;;;;5038930;28;20045;-82
2022/12/06 02:15:35;;;;;;;12.68;6.57;;;;;;;;;;5039149;28;20033;-82
2022/12/06 02:18:11;;;;;;;12.90;6.45;;;;;;;;;;5038967;28;20029;-82
2022/12/06 02:20:59;;;;;;;11.05;6.00;;;;;;;;;;5038970;28;20026;-83
2022/12/06 02:23:52;;;;;;;12.77;5.97;;;;;;;;;;5037584;28;20438;-83
2022/12/06 02:26:36;;;;;;;11.07;5.63;;;;;;;;;;5034238;28;20120;-83
2022/12/06 02:29:20;;;;;;;11.88;6.45;;;;;;;;;;5038629;28;20032;-83
2022/12/06 02:32:00;;;;;;;12.15;6.22;;;;;;;;;;5038560;28;20022;-82
2022/12/06 02:34:33;;;;;;;11.57;6.28;;;;;;;;;;5038900;28;20021;-83
2022/12/06 02:37:02;;;;;;;11.18;6.20;;;;;;;;;;5038830;28;20029;-83
2022/12/06 02:39:48;;;;;;;11.73;5.88;;;;;;;;;;5038672;28;20029;-83
2022/12/06 02:42:17;;;;;;;13.70;6.35;;;;;;;;;;5038346;28;20017;-83
2022/12/06 02:44:48;;;;;;;11.32;6.22;;;;;;;;;;5038568;28;20030;-83
2022/12/06 02:47:15;;;;;;;13.85;6.28;;;;;;;;;;5038607;28;20041;-83
2022/12/06 02:49:43;;;;;;;9.65;5.57;;;;;;;;;;5037990;28;20458;-83
2022/12/06 02:52:10;;;;;;;10.73;5.45;;;;;;;;;;5038575;28;20375;-84
2022/12/06 02:54:36;;;;;;;11.82;5.50;;;;;;;;;;5038126;28;20021;-83
2022/12/06 02:57:02;;;;;;;11.55;5.50;;;;;;;;;;5037254;28;20033;-84
2022/12/06 02:59:28;;;;;;;9.13;5.38;;;;;;;;;;5038032;28;20029;-83
2022/12/06 03:01:59;;;;;;;11.95;5.55;;;;;;;;;;5036249;28;20029;-83
2022/12/06 03:04:46;;;;;;;10.25;5.50;;;;;;;;;;5037087;28;20167;-83
2022/12/06 03:07:27;;;;;;;10.30;5.47;;;;;;;;;;5037064;28;20057;-84
2022/12/06 03:10:09;;;;;;;10.38;5.25;;;;;;;;;;5037880;28;20067;-83
2022/12/06 03:12:38;;;;;;;11.48;5.20;;;;;;;;;;5038097;28;20359;-83
2022/12/06 03:15:08;;;;;;;10.00;5.35;;;;;;;;;;5037848;28;20127;-84
2022/12/06 03:17:46;;;;;;;11.48;5.47;;;;;;;;;;5037800;28;20025;-84
2022/12/06 03:20:21;;;;;;;10.80;6.15;;;;;;;;;;5037607;28;20034;-83
2022/12/06 03:22:51;;;;;;;10.05;5.15;;;;;;;;;;5037715;28;20028;-84
2022/12/06 03:25:17;;;;;;;10.27;5.13;;;;;;;;;;5037908;28;20063;-84
2022/12/06 03:27:44;;;;;;;9.63;5.22;;;;;;;;;;5037837;28;20043;-83
2022/12/06 03:30:12;;;;;;;10.43;4.50;;;;;;;;;;5037558;28;20036;-83
2022/12/06 03:32:40;;;;;;;11.65;5.28;;;;;;;;;;5037749;28;20025;-83
2022/12/06 03:35:08;;;;;;;9.88;5.88;;;;;;;;;;5037240;28;20029;-83
2022/12/06 03:37:35;;;;;;;12.30;6.40;;;;;;;;;;5037288;28;20029;-83
2022/12/06 03:40:12;;;;;;;11.27;5.53;;;;;;;;;;5037407;28;20021;-84
2022/12/06 03:42:38;;;;;;;10.80;6.10;;;;;;;;;;5036711;28;20034;-84
2022/12/06 03:45:04;;;;;;;10.68;6.25;;;;;;;;;;5037832;28;20112;-84
2022/12/06 03:47:37;;;;;;;9.05;5.30;;;;;;;;;;5037343;28;20058;-84
2022/12/06 03:50:08;;;;;;;9.68;4.90;;;;;;;;;;5037445;28;20069;-84
2022/12/06 03:52:34;;;;;;;11.60;5.80;;;;;;;;;;5037383;28;20483;-84
2022/12/06 03:55:00;;;;;;;14.57;6.30;;;;;;;;;;5036582;28;20128;-84
2022/12/06 03:57:26;;;;;;;9.60;5.90;;;;;;;;;;5037344;28;20021;-84
2022/12/06 03:59:52;;;;;;;11.70;5.38;;;;;;;;;;5037252;28;20453;-83
2022/12/06 04:02:18;;;;;;;11.38;5.75;;;;;;;;;;5037203;28;20029;-83
2022/12/06 04:04:44;;;;;;;12.55;7.13;;;;;;;;;;5037199;28;20034;-83
2022/12/06 04:07:11;;;;;;;23.17;14.85;;;;;;;;;;5037162;28;20440;-83
2022/12/06 04:09:55;;;;;;;35.97;22.40;;;;;;;;;;5036067;28;20030;-83
2022/12/06 04:15:07;;;;;;;22.50;12.63;;;;;;;;;;5041631;28;20037;-84
2022/12/06 04:20:17;;;;;;;15.50;10.80;;;;;;;;;;5041395;28;20059;-84
2022/12/06 04:25:28;;;;;;;11.07;7.00;;;;;;;;;;5041464;28;20126;-83
2022/12/06 04:39:30;;;;;;;11.90;5.20;;;;;;;;;;5040778;28;20040;-84
2022/12/06 04:44:41;;;;;;;9.20;5.43;;;;;;;;;;5040728;28;20040;-84
2022/12/06 04:47:08;;;;;;;11.30;5.85;;;;;;;;;;5040949;28;20021;-84
2022/12/06 04:49:34;;;;;;;23.52;9.93;;;;;;;;;;5040336;28;20370;-84
2022/12/06 04:52:00;;;;;;;19.17;8.73;;;;;;;;;;5040531;28;20407;-83
2022/12/06 04:54:28;;;;;;;21.35;9.27;;;;;;;;;;5039514;28;20032;-84
2022/12/06 04:56:54;;;;;;;12.52;6.97;;;;;;;;;;5040361;28;20474;-83
2022/12/06 04:59:20;;;;;;;11.95;6.47;;;;;;;;;;5039351;28;20029;-83
2022/12/06 05:01:47;;;;;;;12.13;6.82;;;;;;;;;;5040471;28;20030;-83
2022/12/06 05:04:13;;;;;;;13.52;7.30;;;;;;;;;;5040197;28;20535;-84
2022/12/06 05:06:39;;;;;;;19.65;7.82;;;;;;;;;;5040282;28;20030;-83
2022/12/06 05:09:05;;;;;;;22.10;9.50;;;;;;;;;;5039187;28;20022;-84
2022/12/06 05:11:32;;;;;;;14.20;7.30;;;;;;;;;;5040268;28;20026;-83
2022/12/06 05:13:59;;;;;;;10.40;6.50;;;;;;;;;;5040331;28;20026;-83
2022/12/06 05:19:28;;;;;;;14.63;7.70;;;;;;;;;;5039874;28;20041;-83
2022/12/06 05:21:55;;;;;;;14.10;7.80;;;;;;;;;;5040021;28;20503;-83
2022/12/06 05:24:21;;;;;;;18.30;8.27;;;;;;;;;;5039065;28;20426;-83
2022/12/06 05:26:47;;;;;;;21.20;9.43;;;;;;;;;;5040046;28;20093;-83
2022/12/06 05:29:13;;;;;;;17.95;7.93;;;;;;;;;;5039793;28;20038;-83
2022/12/06 05:31:42;;;;;;;13.95;7.38;;;;;;;;;;5038727;28;20033;-83
2022/12/06 05:34:09;;;;;;;21.58;9.82;;;;;;;;;;5039925;28;20033;-83
2022/12/06 05:36:35;;;;;;;20.65;9.18;;;;;;;;;;5039811;28;20022;-84
2022/12/06 05:39:01;;;;;;;19.02;8.35;;;;;;;;;;5039459;28;20427;-84
2022/12/06 05:41:27;;;;;;;12.95;6.72;;;;;;;;;;5039787;28;20022;-84
2022/12/06 05:43:53;;;;;;;11.73;6.82;;;;;;;;;;5039671;28;20014;-83
2022/12/06 05:46:20;;;;;;;9.95;6.07;;;;;;;;;;5038370;28;20037;-83
2022/12/06 05:48:46;;;;;;;11.85;6.15;;;;;;;;;;5038263;28;20112;-84
2022/12/06 05:51:12;;;;;;;11.80;6.13;;;;;;;;;;5051838;28;20059;-83
2022/12/06 05:53:39;;;;;;;13.60;7.50;;;;;;;;;;5079275;28;20099;-83
2022/12/06 05:56:07;;;;;;;20.52;8.77;;;;;;;;;;5095163;28;20028;-83
2022/12/06 05:58:33;;;;;;;29.70;8.90;;;;;;;;;;5079543;28;20024;-84
2022/12/06 06:00:59;;;;;;;17.98;8.80;;;;;;;;;;5095059;28;20028;-83
2022/12/06 06:03:25;;;;;;;21.33;8.70;;;;;;;;;;5079381;28;20028;-83
2022/12/06 06:05:55;;;;;;;26.63;8.68;;;;;;;;;;5079117;28;20066;-83
2022/12/06 06:08:21;;;;;;;21.15;8.43;;;;;;;;;;5095133;28;20158;-84
2022/12/06 06:10:47;;;;;;;23.00;9.55;;;;;;;;;;5079173;28;20035;-84
2022/12/06 06:13:13;;;;;;;24.95;8.88;;;;;;;;;;5094612;28;20047;-83
2022/12/06 06:15:58;;;;;;;17.55;9.38;;;;;;;;;;5079062;28;20033;-84
2022/12/06 06:18:24;;;;;;;24.25;9.40;;;;;;;;;;5078949;28;20032;-83
2022/12/06 06:20:54;;;;;;;34.50;10.30;;;;;;;;;;5072394;28;20036;-83
2022/12/06 06:23:21;;;;;;;26.80;9.80;;;;;;;;;;5058246;28;20025;-83
2022/12/06 06:25:47;;;;;;;28.95;10.23;;;;;;;;;;5058367;28;20020;-83
2022/12/06 06:28:13;;;;;;;24.38;11.35;;;;;;;;;;5057577;28;20021;-83
2022/12/06 06:30:39;;;;;;;37.95;12.77;;;;;;;;;;5046112;28;20044;-83
2022/12/06 06:33:05;;;;;;;37.13;10.82;;;;;;;;;;5054844;28;20043;-83
2022/12/06 06:35:31;;;;;;;28.63;11.25;;;;;;;;;;5056866;28;20048;-83
2022/12/06 06:37:58;;;;;;;32.70;11.88;;;;;;;;;;5058612;28;20021;-83
2022/12/06 06:40:24;;;;;;;27.83;11.70;;;;;;;;;;5058303;28;20031;-83
2022/12/06 06:42:50;;;;;;;30.48;11.20;;;;;;;;;;5058222;28;20021;-83
2022/12/06 06:45:16;;;;;;;31.80;10.45;;;;;;;;;;5046057;28;20025;-82
2022/12/06 06:47:42;;;;;;;26.83;12.10;;;;;;;;;;5051397;28;20041;-83
2022/12/06 06:50:08;;;;;;;29.05;11.27;;;;;;;;;;5056934;28;20083;-83
2022/12/06 06:52:34;;;;;;;39.50;14.00;;;;;;;;;;5055965;28;20354;-80
2022/12/06 06:55:00;;;;;;;31.25;11.60;;;;;;;;;;5045652;28;20025;-81
2022/12/06 06:57:27;;;;;;;20.42;10.98;;;;;;;;;;5056505;28;20029;-83
2022/12/06 07:02:56;;;;;;;21.50;10.40;;;;;;;;;;5055615;28;20074;-87
2022/12/06 07:05:23;;;;;;;21.27;10.27;;;;;;;;;;5058448;28;20021;-87
2022/12/06 07:07:49;;;;;;;18.75;9.85;;;;;;;;;;5058419;28;20036;-86
2022/12/06 07:10:15;;;;;;;36.30;16.05;;;;;;;;;;5058172;28;20021;-86
2022/12/06 07:12:41;;;;;;;59.55;21.50;;;;;;;;;;5058058;28;20419;-87
2022/12/06 07:15:07;;;;;;;64.65;23.92;;;;;;;;;;5057026;28;20029;-86
2022/12/06 07:17:34;;;;;;;29.80;11.45;;;;;;;;;;5056756;28;20044;-86
2022/12/06 07:20:00;;;;;;;31.92;12.38;;;;;;;;;;5056864;28;20087;-86
2022/12/06 07:22:26;;;;;;;83.35;20.98;;;;;;;;;;5057921;28;20043;-86
2022/12/06 07:24:52;;;;;;;99.97;26.27;;;;;;;;;;5056921;28;20071;-86
2022/12/06 07:27:19;;;;;;;89.90;29.63;;;;;;;;;;5057184;28;20463;-86
2022/12/06 07:29:45;;;;;;;110.80;33.35;;;;;;;;;;5057695;28;20039;-86
2022/12/06 07:32:11;;;;;;;74.93;25.77;;;;;;;;;;5057876;28;20025;-86
2022/12/06 07:34:37;;;;;;;56.95;23.45;;;;;;;;;;5057997;28;20028;-86
2022/12/06 07:37:05;;;;;;;53.33;24.13;;;;;;;;;;5057769;28;20029;-86
2022/12/06 07:39:31;;;;;;;42.63;18.83;;;;;;;;;;5057600;28;20063;-86
2022/12/06 07:45:00;;;;;;;22.65;12.52;;;;;;;;;;5057588;28;20032;-86
2022/12/06 07:47:27;;;;;;;41.75;19.83;;;;;;;;;;5057170;28;20020;-86
2022/12/06 07:49:53;;;;;;;45.97;19.80;;;;;;;;;;5056567;28;20053;-85
2022/12/06 07:52:19;;;;;;;42.17;16.63;;;;;;;;;;5057431;28;20391;-86
2022/12/06 07:54:46;;;;;;;29.83;15.18;;;;;;;;;;5056507;28;20033;-86
2022/12/06 07:57:12;;;;;;;30.50;15.63;;;;;;;;;;5056518;28;20028;-86
2022/12/06 07:59:39;;;;;;;26.65;14.35;;;;;;;;;;5057463;28;20029;-85
2022/12/06 08:02:05;;;;;;;64.65;26.77;;;;;;;;;;5056505;28;20032;-85
2022/12/06 08:04:31;;;;;;;31.17;16.70;;;;;;;;;;5057526;28;20315;-85
2022/12/06 08:06:57;;;;;;;46.15;20.52;;;;;;;;;;5057067;28;20017;-84
2022/12/06 08:09:23;;;;;;;66.82;29.60;;;;;;;;;;5057316;28;20032;-85
2022/12/06 08:11:49;;;;;;;37.22;17.08;;;;;;;;;;5057358;28;20021;-85
2022/12/06 08:14:15;;;;;;;72.53;25.67;;;;;;;;;;5057237;28;20021;-86
2022/12/06 08:16:41;;;;;;;99.40;36.58;;;;;;;;;;5056291;28;20032;-85
2022/12/06 08:19:07;;;;;;;76.70;30.33;;;;;;;;;;5056162;28;20045;-85
2022/12/06 08:21:34;;;;;;;78.28;29.50;;;;;;;;;;5057488;28;20319;-85
2022/12/06 08:24:02;;;;;;;135.00;47.75;;;;;;;;;;5056263;28;20025;-86
2022/12/06 08:26:28;;;;;;;115.50;42.15;;;;;;;;;;5057502;28;20292;-85
2022/12/06 08:28:54;;;;;;;99.85;37.50;;;;;;;;;;5056203;28;20078;-85
2022/12/06 08:31:22;;;;;;;89.28;33.90;;;;;;;;;;5055987;28;20478;-85
2022/12/06 08:33:48;;;;;;;47.13;22.42;;;;;;;;;;5057322;28;20029;-85
2022/12/06 08:36:16;;;;;;;41.03;20.15;;;;;;;;;;5056138;28;20028;-85
2022/12/06 08:38:42;;;;;;;53.60;23.85;;;;;;;;;;5057144;28;20407;-85
2022/12/06 08:41:54;;;;;;;114.95;43.08;;;;;;;;;;5055867;28;20033;-85
2022/12/06 08:43:58;;;;;;;110.57;46.00;;;;;;;;;;5057028;28;20021;-84
2022/12/06 08:46:24;;;;;;;81.75;35.50;;;;;;;;;;5057102;28;20021;-83
2022/12/06 08:48:50;;;;;;;60.97;29.42;;;;;;;;;;5056669;28;20045;-85
2022/12/06 08:51:16;;;;;;;59.28;29.17;;;;;;;;;;5055684;28;20071;-85
2022/12/06 08:53:43;;;;;;;54.00;27.15;;;;;;;;;;5056787;28;20319;-84
2022/12/06 08:56:09;;;;;;;39.00;18.70;;;;;;;;;;5056871;28;20048;-85
2022/12/06 08:58:35;;;;;;;37.90;18.60;;;;;;;;;;5044840;28;20318;-84
2022/12/06 09:01:08;;;;;;;36.35;18.35;;;;;;;;;;5039568;28;20120;-84
2022/12/06 09:03:34;;;;;;;42.70;21.58;;;;;;;;;;5039476;28;20017;-85
2022/12/06 09:06:01;;;;;;;60.58;25.33;;;;;;;;;;5040548;28;20044;-85
2022/12/06 09:08:27;;;;;;;56.42;27.00;;;;;;;;;;5040512;28;20030;-85
2022/12/06 09:10:53;;;;;;;76.55;35.85;;;;;;;;;;5040320;28;20026;-85
2022/12/06 09:13:19;;;;;;;74.60;34.58;;;;;;;;;;5039335;28;20408;-85
2022/12/06 09:15:45;;;;;;;72.60;31.83;;;;;;;;;;5047576;28;20029;-84
2022/12/06 09:18:11;;;;;;;74.80;34.78;;;;;;;;;;5057550;28;20029;-84
2022/12/06 09:20:41;;;;;;;57.15;23.75;;;;;;;;;;5039967;28;20033;-84
2022/12/06 09:23:07;;;;;;;56.10;24.48;;;;;;;;;;5045838;28;20482;-85
2022/12/06 09:25:33;;;;;;;55.03;24.00;;;;;;;;;;5051333;28;20018;-83
2022/12/06 09:27:59;;;;;;;63.95;30.33;;;;;;;;;;5057830;28;20028;-82
2022/12/06 09:30:25;;;;;;;51.13;26.13;;;;;;;;;;5047936;28;20044;-85
2022/12/06 09:32:52;;;;;;;33.65;17.38;;;;;;;;;;5039699;28;20025;-85
2022/12/06 09:35:18;;;;;;;34.08;19.23;;;;;;;;;;5039977;28;20025;-85
2022/12/06 09:37:44;;;;;;;43.28;21.48;;;;;;;;;;5039726;28;20021;-85
2022/12/06 09:40:21;;;;;;;43.45;20.40;;;;;;;;;;5039513;28;20044;-84
2022/12/06 09:42:47;;;;;;;55.78;26.80;;;;;;;;;;5038677;28;20080;-84
2022/12/06 09:45:39;;;;;;;45.90;25.13;;;;;;;;;;5040141;28;20033;-85
2022/12/06 09:48:05;;;;;;;51.15;28.40;;;;;;;;;;5057652;28;20073;-83
2022/12/06 09:50:50;;;;;;;59.67;30.73;;;;;;;;;;5057618;28;20079;-84
2022/12/06 09:53:16;;;;;;;80.43;37.25;;;;;;;;;;5041106;28;20052;-84
2022/12/06 09:55:55;;;;;;;51.63;27.83;;;;;;;;;;5057726;28;20029;-85
2022/12/06 09:58:29;;;;;;;69.45;32.10;;;;;;;;;;5057688;28;20331;-85
2022/12/06 10:01:04;;;;;;;55.88;32.28;;;;;;;;;;5040538;28;20045;-84
2022/12/06 10:03:36;;;;;;;55.42;30.05;;;;;;;;;;5057560;28;20029;-84
2022/12/06 10:06:04;;;;;;;50.05;27.70;;;;;;;;;;5057334;28;20028;-85
2022/12/06 10:08:48;;;;;;;46.03;24.45;;;;;;;;;;5057302;28;20044;-84
2022/12/06 10:11:22;;;;;;;37.85;22.50;;;;;;;;;;5057121;28;20056;-84
2022/12/06 10:14:07;;;;;;;41.17;24.17;;;;;;;;;;5040695;28;20159;-84
2022/12/06 10:16:39;;;;;;;42.65;23.30;;;;;;;;;;5057384;28;20075;-84
2022/12/06 10:19:09;;;;;;;42.53;22.00;;;;;;;;;;5040192;28;20033;-84
2022/12/06 10:21:41;;;;;;;55.33;29.33;;;;;;;;;;5057231;28;20059;-84
2022/12/06 10:24:22;;;;;;;64.68;31.98;;;;;;;;;;5045576;28;20068;-85
2022/12/06 10:26:50;;;;;;;57.78;30.08;;;;;;;;;;5079202;28;20024;-84
2022/12/06 10:29:22;;;;;;;53.95;28.35;;;;;;;;;;5078970;28;20025;-85
2022/12/06 10:31:59;;;;;;;57.13;29.52;;;;;;;;;;5078867;28;20047;-84
2022/12/06 10:34:43;;;;;;;74.93;34.38;;;;;;;;;;5078717;28;20454;-85
2022/12/06 10:37:12;;;;;;;57.80;30.00;;;;;;;;;;5078564;28;20056;-84
2022/12/06 10:39:44;;;;;;;48.63;27.92;;;;;;;;;;5078830;28;20082;-84
2022/12/06 10:42:10;;;;;;;;;;;;;;;;;;5079128;28;20124;-84
2022/12/06 10:44:40;;;;;;;57.83;26.00;;;;;;;;;;5078529;28;19928;-88
2022/12/06 10:47:23;;;;;;;55.10;28.60;;;;;;;;;;5077234;28;20032;-83
2022/12/06 10:49:59;;;;;;;47.70;25.80;;;;;;;;;;5078016;28;20048;-85
2022/12/06 10:52:31;;;;;;;55.85;32.67;;;;;;;;;;5078224;28;20024;-84
2022/12/06 10:55:09;;;;;;;65.90;36.08;;;;;;;;;;5078195;28;20418;-84
2022/12/06 10:57:47;;;;;;;65.50;33.30;;;;;;;;;;5054966;28;20040;-84
2022/12/06 11:00:18;;;;;;;78.70;38.08;;;;;;;;;;5040541;28;20022;-85
2022/12/06 11:02:53;;;;;;;83.07;37.88;;;;;;;;;;5038436;28;20033;-85
2022/12/06 11:05:26;;;;;;;53.53;26.42;;;;;;;;;;5038206;28;20021;-85
2022/12/06 11:07:55;;;;;;;45.30;26.00;;;;;;;;;;5038115;28;20021;-84
2022/12/06 11:10:24;;;;;;;101.80;48.55;;;;;;;;;;5036881;28;20037;-84
2022/12/06 11:12:54;;;;;;;80.03;39.85;;;;;;;;;;5037833;28;20029;-82
2022/12/06 11:15:22;;;;;;;65.05;35.33;;;;;;;;;;5020598;28;20431;-84
2022/12/06 11:18:07;;;;;;;54.03;26.38;;;;;;;;;;5036839;28;20067;-84
2022/12/06 11:20:38;;;;;;;92.50;39.10;;;;;;;;;;5037735;28;20025;-84
2022/12/06 11:23:23;;;;;;;101.03;43.33;;;;;;;;;;5036159;28;20017;-84
2022/12/06 11:25:49;;;;;;;95.93;42.83;;;;;;;;;;5036783;28;20041;-84
2022/12/06 11:28:48;;;;;;;78.13;36.10;;;;;;;;;;5037901;28;20105;-84
2022/12/06 11:31:41;;;;;;;49.80;26.67;;;;;;;;;;4996801;28;20049;-85
2022/12/06 11:34:27;;;;;;;46.78;26.23;;;;;;;;;;4995454;28;20418;-84
2022/12/06 11:36:54;;;;;;;48.85;28.52;;;;;;;;;;4976558;28;20084;-84
2022/12/06 11:39:21;;;;;;;63.63;34.42;;;;;;;;;;4976680;28;20039;-84
2022/12/06 11:41:50;;;;;;;51.47;30.00;;;;;;;;;;4976881;28;20045;-84
2022/12/06 11:44:19;;;;;;;83.65;36.38;;;;;;;;;;4976720;28;20026;-84
2022/12/06 11:46:46;;;;;;;92.32;44.40;;;;;;;;;;4976972;28;20039;-84
2022/12/06 11:49:18;;;;;;;67.82;35.55;;;;;;;;;;4976704;28;20085;-84
2022/12/06 11:51:45;;;;;;;66.32;36.05;;;;;;;;;;4977060;28;20156;-84
2022/12/06 11:54:28;;;;;;;69.25;37.25;;;;;;;;;;4977021;28;20049;-84
2022/12/06 11:56:56;;;;;;;73.03;37.63;;;;;;;;;;4960753;28;20436;-84
2022/12/06 11:59:24;;;;;;;65.07;36.40;;;;;;;;;;4976627;28;20059;-83
2022/12/06 12:01:51;;;;;;;67.22;37.83;;;;;;;;;;4976757;28;20445;-84
2022/12/06 12:04:32;;;;;;;65.88;39.08;;;;;;;;;;4960725;28;20420;-84
2022/12/06 12:07:00;;;;;;;75.55;39.28;;;;;;;;;;4965681;28;20430;-84
2022/12/06 12:09:29;;;;;;;78.22;40.95;;;;;;;;;;4957607;29;20453;-83
2022/12/06 12:11:59;;;;;;;79.85;44.13;;;;;;;;;;4957405;29;20115;-84
2022/12/06 12:14:27;;;;;;;72.88;40.13;;;;;;;;;;5012803;28;20068;-84
2022/12/06 12:16:58;;;;;;;82.18;40.88;;;;;;;;;;5036188;28;20018;-83
2022/12/06 12:19:31;;;;;;;78.28;41.15;;;;;;;;;;5037140;28;20311;-84
2022/12/06 12:21:58;;;;;;;78.47;41.95;;;;;;;;;;5037060;28;20064;-84
2022/12/06 12:24:43;;;;;;;74.57;47.38;;;;;;;;;;5037329;28;20064;-84
2022/12/06 12:27:32;;;;;;;68.72;36.53;;;;;;;;;;5037216;28;20068;-84
2022/12/06 12:30:16;;;;;;;81.95;48.75;;;;;;;;;;4995929;28;20126;-84
2022/12/06 12:32:42;;;;;;;59.42;34.05;;;;;;;;;;4996537;28;20041;-84
2022/12/06 12:35:24;;;;;;;64.03;38.00;;;;;;;;;;4999849;28;20421;-84
2022/12/06 12:37:51;;;;;;;83.40;46.27;;;;;;;;;;4983629;28;20030;-84
2022/12/06 12:40:34;;;;;;;71.43;39.15;;;;;;;;;;4983346;28;20034;-84
2022/12/06 12:43:24;;;;;;;70.05;36.28;;;;;;;;;;4999658;28;20026;-84
2022/12/06 12:46:04;;;;;;;73.72;38.33;;;;;;;;;;4944704;28;20410;-83
2022/12/06 12:48:30;;;;;;;68.88;34.22;;;;;;;;;;4944452;28;20039;-83
2022/12/06 12:50:58;;;;;;;66.97;32.92;;;;;;;;;;4944746;29;20096;-83
2022/12/06 12:53:36;;;;;;;73.22;35.70;;;;;;;;;;4960361;28;20035;-83
2022/12/06 12:56:06;;;;;;;72.65;37.67;;;;;;;;;;4960329;29;20041;-83
2022/12/06 12:58:32;;;;;;;83.40;42.67;;;;;;;;;;4944335;28;20035;-82
2022/12/06 13:01:02;;;;;;;83.95;45.80;;;;;;;;;;4944643;28;20046;-82
2022/12/06 13:03:28;;;;;;;72.72;39.40;;;;;;;;;;4960301;29;20031;-82
2022/12/06 13:05:55;;;;;;;66.57;37.75;;;;;;;;;;4963540;28;20023;-83
2022/12/06 13:08:28;;;;;;;97.07;51.55;;;;;;;;;;4982928;28;20019;-82
2022/12/06 13:10:55;;;;;;;100.32;53.03;;;;;;;;;;4998963;28;20039;-83
2022/12/06 13:13:26;;;;;;;86.75;46.78;;;;;;;;;;4998947;28;20117;-82
2022/12/06 13:15:53;;;;;;;76.63;40.05;;;;;;;;;;4998777;28;20034;-83
2022/12/06 13:18:24;;;;;;;72.07;37.50;;;;;;;;;;4998712;28;20034;-83
2022/12/06 13:20:51;;;;;;;67.40;35.53;;;;;;;;;;4998746;28;20038;-83
2022/12/06 13:23:20;;;;;;;66.38;35.90;;;;;;;;;;5027895;28;20040;-83
2022/12/06 13:25:49;;;;;;;68.72;33.75;;;;;;;;;;5040011;28;20029;-83
2022/12/06 13:28:18;;;;;;;62.03;33.22;;;;;;;;;;5039779;28;20017;-83
2022/12/06 13:30:45;;;;;;;63.17;32.15;;;;;;;;;;5038776;28;20101;-84
2022/12/06 13:33:17;;;;;;;67.15;33.50;;;;;;;;;;5039783;28;20033;-83
2022/12/06 13:35:48;;;;;;;67.07;34.72;;;;;;;;;;5039683;28;20026;-83
2022/12/06 13:38:17;;;;;;;65.72;34.08;;;;;;;;;;5038682;28;20116;-83
2022/12/06 13:41:09;;;;;;;65.90;34.28;;;;;;;;;;5039554;28;20045;-84
2022/12/06 13:43:35;;;;;;;67.72;34.83;;;;;;;;;;5037731;28;20053;-84
2022/12/06 13:46:16;;;;;;;67.28;34.40;;;;;;;;;;5038989;28;20025;-84
2022/12/06 13:48:56;;;;;;;79.75;39.47;;;;;;;;;;5039664;28;20045;-83
2022/12/06 13:51:33;;;;;;;60.85;32.28;;;;;;;;;;5039767;28;20025;-84
2022/12/06 13:54:05;;;;;;;72.47;38.22;;;;;;;;;;5039642;28;20105;-83
2022/12/06 13:56:34;;;;;;;108.45;50.95;;;;;;;;;;5038494;28;20040;-83
2022/12/06 13:59:04;;;;;;;97.70;44.75;;;;;;;;;;5038139;28;20128;-83
2022/12/06 14:01:40;;;;;;;101.70;49.40;;;;;;;;;;5038290;28;20029;-83
2022/12/06 14:04:41;;;;;;;65.05;35.20;;;;;;;;;;5038392;28;20415;-83
2022/12/06 14:07:08;;;;;;;52.63;31.98;;;;;;;;;;4981696;28;20027;-83
2022/12/06 14:09:37;;;;;;;53.67;31.55;;;;;;;;;;4998001;28;20101;-83
2022/12/06 14:12:07;;;;;;;55.95;33.08;;;;;;;;;;4981623;28;20114;-83
2022/12/06 14:14:33;;;;;;;57.55;33.10;;;;;;;;;;4981647;28;20444;-83
2022/12/06 14:17:03;;;;;;;83.82;43.40;;;;;;;;;;4997852;28;20105;-83
2022/12/06 14:19:39;;;;;;;69.43;38.90;;;;;;;;;;4997645;28;20026;-83
2022/12/06 14:22:23;;;;;;;71.85;37.80;;;;;;;;;;4997636;28;20030;-83
2022/12/06 14:24:56;;;;;;;60.67;36.92;;;;;;;;;;4981562;28;20019;-83
2022/12/06 14:27:22;;;;;;;78.88;47.42;;;;;;;;;;4981050;28;20058;-84
2022/12/06 14:29:59;;;;;;;134.43;87.97;;;;;;;;;;4997570;28;20030;-83
2022/12/06 14:32:35;;;;;;;114.95;70.85;;;;;;;;;;4981270;28;20085;-82
2022/12/06 14:35:02;;;;;;;82.22;47.80;;;;;;;;;;4997365;28;20129;-83
2022/12/06 14:37:29;;;;;;;59.65;36.47;;;;;;;;;;4997258;28;20030;-83
2022/12/06 14:39:55;;;;;;;87.25;45.35;;;;;;;;;;4998429;28;20105;-83
2022/12/06 14:45:11;;;;;;;92.30;46.42;;;;;;;;;;5038441;28;20071;-83
2022/12/06 14:47:38;;;;;;;81.07;42.42;;;;;;;;;;5037298;28;20018;-83
2022/12/06 14:50:23;;;;;;;78.97;43.47;;;;;;;;;;5038343;28;20050;-83
2022/12/06 14:52:56;;;;;;;93.45;48.58;;;;;;;;;;5038350;28;20029;-82
2022/12/06 14:55:22;;;;;;;67.90;38.00;;;;;;;;;;5038149;28;20033;-82
2022/12/06 14:57:49;;;;;;;65.40;39.35;;;;;;;;;;5037213;28;20032;-83
2022/12/06 15:00:19;;;;;;;82.45;44.33;;;;;;;;;;5038118;28;20035;-83
2022/12/06 15:02:59;;;;;;;73.43;39.80;;;;;;;;;;5037095;28;20075;-83
2022/12/06 15:05:38;;;;;;;60.63;35.85;;;;;;;;;;5038004;28;20026;-85
2022/12/06 15:08:19;;;;;;;82.22;45.88;;;;;;;;;;5037909;28;20085;-83
2022/12/06 15:10:56;;;;;;;73.35;45.75;;;;;;;;;;5038081;28;20030;-82
2022/12/06 15:13:23;;;;;;;73.28;44.30;;;;;;;;;;5036666;28;20407;-82
2022/12/06 15:15:59;;;;;;;76.93;44.88;;;;;;;;;;5036788;28;20083;-82
2022/12/06 15:18:27;;;;;;;75.45;45.60;;;;;;;;;;5037741;28;20491;-83